sensor_id;sensor_type;location;lat;lon;timestamp;pressure;altitude;pressure_sealevel;temperature;humidity
20009;BME280;10165;42.662;23.260;2023-03-11T00:00:08;92343.31;;;12.59;81.51
20009;BME280;10165;42.662;23.260;2023-03-11T00:02:39;92347.53;;;11.75;83.29
20009;BME280;10165;42.662;23.260;2023-03-11T00:05:07;92335.78;;;10.99;89.52
20009;BME280;10165;42.662;23.260;2023-03-11T00:07:34;92339.41;;;11.34;86.02
20009;BME280;10165;42.662;23.260;2023-03-11T00:10:03;92342.97;;;11.10;84.76
20009;BME280;10165;42.662;23.260;2023-03-11T00:12:29;92340.34;;;11.02;84.38
20009;BME280;10165;42.662;23.260;2023-03-11T00:14:56;92349.31;;;10.53;87.81
20009;BME280;10165;42.662;23.260;2023-03-11T00:17:23;92332.59;;;10.28;88.45
20009;BME280;10165;42.662;23.260;2023-03-11T00:19:49;92342.06;;;10.58;88.69
20009;BME280;10165;42.662;23.260;2023-03-11T00:22:16;92338.81;;;11.01;86.84
20009;BME280;10165;42.662;23.260;2023-03-11T00:24:42;92341.88;;;11.03;84.61
20009;BME280;10165;42.662;23.260;2023-03-11T00:27:09;92342.84;;;11.27;84.79
20009;BME280;10165;42.662;23.260;2023-03-11T00:29:36;92340.38;;;11.54;81.97
20009;BME280;10165;42.662;23.260;2023-03-11T00:32:02;92331.63;;;11.50;81.07
20009;BME280;10165;42.662;23.260;2023-03-11T00:34:29;92334.00;;;11.92;79.66
20009;BME280;10165;42.662;23.260;2023-03-11T00:36:56;92337.44;;;12.37;76.90
20009;BME280;10165;42.662;23.260;2023-03-11T00:39:22;92334.31;;;12.42;76.87
20009;BME280;10165;42.662;23.260;2023-03-11T00:41:49;92327.97;;;12.63;76.05
20009;BME280;10165;42.662;23.260;2023-03-11T00:44:17;92322.91;;;13.03;75.02
20009;BME280;10165;42.662;23.260;2023-03-11T00:46:43;92321.13;;;13.23;73.72
20009;BME280;10165;42.662;23.260;2023-03-11T00:49:10;92312.13;;;12.42;75.17
20009;BME280;10165;42.662;23.260;2023-03-11T00:51:36;92299.91;;;12.41;77.10
20009;BME280;10165;42.662;23.260;2023-03-11T00:54:03;92293.38;;;12.05;77.23
20009;BME280;10165;42.662;23.260;2023-03-11T00:56:30;92280.66;;;12.50;75.58
20009;BME280;10165;42.662;23.260;2023-03-11T00:58:56;92272.50;;;12.30;75.40
20009;BME280;10165;42.662;23.260;2023-03-11T01:01:23;92271.78;;;12.26;76.25
20009;BME280;10165;42.662;23.260;2023-03-11T01:03:50;92266.75;;;11.94;77.16
20009;BME280;10165;42.662;23.260;2023-03-11T01:06:16;92274.03;;;11.90;77.79
20009;BME280;10165;42.662;23.260;2023-03-11T01:08:43;92270.38;;;12.14;77.74
20009;BME280;10165;42.662;23.260;2023-03-11T01:11:10;92255.00;;;11.81;78.49
20009;BME280;10165;42.662;23.260;2023-03-11T01:13:37;92264.38;;;11.55;80.25
20009;BME280;10165;42.662;23.260;2023-03-11T01:16:04;92262.09;;;11.57;81.13
20009;BME280;10165;42.662;23.260;2023-03-11T01:18:30;92257.41;;;11.17;83.15
20009;BME280;10165;42.662;23.260;2023-03-11T01:20:57;92248.25;;;11.18;83.64
20009;BME280;10165;42.662;23.260;2023-03-11T01:23:24;92236.00;;;11.24;83.03
20009;BME280;10165;42.662;23.260;2023-03-11T01:25:51;92224.88;;;10.74;84.30
20009;BME280;10165;42.662;23.260;2023-03-11T01:28:17;92209.00;;;11.56;84.06
20009;BME280;10165;42.662;23.260;2023-03-11T01:30:44;92192.09;;;12.07;79.73
20009;BME280;10165;42.662;23.260;2023-03-11T01:33:17;92178.66;;;11.76;77.68
20009;BME280;10165;42.662;23.260;2023-03-11T01:35:44;92177.34;;;12.25;75.89
20009;BME280;10165;42.662;23.260;2023-03-11T01:38:11;92161.63;;;12.27;75.48
20009;BME280;10165;42.662;23.260;2023-03-11T01:40:44;92164.25;;;12.31;75.80
20009;BME280;10165;42.662;23.260;2023-03-11T01:46:11;92181.59;;;12.19;73.15
20009;BME280;10165;42.662;23.260;2023-03-11T01:48:39;92178.63;;;12.14;77.19
20009;BME280;10165;42.662;23.260;2023-03-11T01:51:06;92191.41;;;11.58;80.00
20009;BME280;10165;42.662;23.260;2023-03-11T01:53:33;92202.91;;;10.48;85.70
20009;BME280;10165;42.662;23.260;2023-03-11T01:56:02;92201.97;;;10.80;87.18
20009;BME280;10165;42.662;23.260;2023-03-11T01:58:35;92212.34;;;11.22;82.05
20009;BME280;10165;42.662;23.260;2023-03-11T02:01:03;92205.44;;;11.69;77.26
20009;BME280;10165;42.662;23.260;2023-03-11T02:03:36;92223.88;;;12.35;74.43
20009;BME280;10165;42.662;23.260;2023-03-11T02:06:07;92228.81;;;12.36;74.98
20009;BME280;10165;42.662;23.260;2023-03-11T02:08:35;92227.34;;;12.32;74.91
20009;BME280;10165;42.662;23.260;2023-03-11T02:11:04;92227.59;;;12.11;71.79
20009;BME280;10165;42.662;23.260;2023-03-11T02:13:32;92228.50;;;12.61;69.54
20009;BME280;10165;42.662;23.260;2023-03-11T02:16:02;92219.41;;;12.25;69.28
20009;BME280;10165;42.662;23.260;2023-03-11T02:18:29;92229.09;;;11.71;71.06
20009;BME280;10165;42.662;23.260;2023-03-11T02:21:20;92238.59;;;12.16;69.41
20009;BME280;10165;42.662;23.260;2023-03-11T02:23:49;92242.88;;;12.10;69.40
20009;BME280;10165;42.662;23.260;2023-03-11T02:26:24;92244.50;;;12.01;69.21
20009;BME280;10165;42.662;23.260;2023-03-11T02:28:52;92258.91;;;12.14;68.03
20009;BME280;10165;42.662;23.260;2023-03-11T02:31:20;92254.53;;;11.93;69.28
20009;BME280;10165;42.662;23.260;2023-03-11T02:33:50;92254.63;;;11.82;67.77
20009;BME280;10165;42.662;23.260;2023-03-11T02:36:37;92247.06;;;11.70;67.90
20009;BME280;10165;42.662;23.260;2023-03-11T02:39:05;92260.03;;;11.75;68.16
20009;BME280;10165;42.662;23.260;2023-03-11T02:41:35;92263.81;;;11.81;69.40
20009;BME280;10165;42.662;23.260;2023-03-11T02:44:04;92265.94;;;11.97;69.62
20009;BME280;10165;42.662;23.260;2023-03-11T02:46:33;92257.22;;;12.27;68.13
20009;BME280;10165;42.662;23.260;2023-03-11T02:49:00;92275.72;;;11.73;69.12
20009;BME280;10165;42.662;23.260;2023-03-11T02:51:28;92267.38;;;11.64;70.41
20009;BME280;10165;42.662;23.260;2023-03-11T02:53:57;92258.66;;;12.01;69.17
20009;BME280;10165;42.662;23.260;2023-03-11T02:56:25;92265.75;;;12.18;68.69
20009;BME280;10165;42.662;23.260;2023-03-11T02:58:51;92257.94;;;12.31;68.44
20009;BME280;10165;42.662;23.260;2023-03-11T03:01:18;92256.16;;;12.21;69.27
20009;BME280;10165;42.662;23.260;2023-03-11T03:03:45;92251.78;;;12.37;68.77
20009;BME280;10165;42.662;23.260;2023-03-11T03:06:12;92246.88;;;11.95;69.10
20009;BME280;10165;42.662;23.260;2023-03-11T03:08:39;92253.00;;;11.92;69.15
20009;BME280;10165;42.662;23.260;2023-03-11T03:11:06;92252.19;;;11.98;68.22
20009;BME280;10165;42.662;23.260;2023-03-11T03:13:33;92252.28;;;12.25;67.99
20009;BME280;10165;42.662;23.260;2023-03-11T03:16:00;92256.50;;;12.23;66.48
20009;BME280;10165;42.662;23.260;2023-03-11T03:18:26;92257.69;;;12.22;67.05
20009;BME280;10165;42.662;23.260;2023-03-11T03:20:53;92264.50;;;12.26;65.82
20009;BME280;10165;42.662;23.260;2023-03-11T03:23:20;92263.09;;;12.49;65.16
20009;BME280;10165;42.662;23.260;2023-03-11T03:25:46;92267.66;;;12.52;64.94
20009;BME280;10165;42.662;23.260;2023-03-11T03:28:13;92266.19;;;12.47;65.27
20009;BME280;10165;42.662;23.260;2023-03-11T03:30:40;92280.34;;;12.10;67.53
20009;BME280;10165;42.662;23.260;2023-03-11T03:33:07;92264.59;;;11.78;66.72
20009;BME280;10165;42.662;23.260;2023-03-11T03:35:34;92268.59;;;12.38;65.14
20009;BME280;10165;42.662;23.260;2023-03-11T03:38:01;92261.25;;;12.42;65.53
20009;BME280;10165;42.662;23.260;2023-03-11T03:40:28;92267.63;;;12.21;65.06
20009;BME280;10165;42.662;23.260;2023-03-11T03:42:54;92270.94;;;11.95;65.60
20009;BME280;10165;42.662;23.260;2023-03-11T03:45:21;92264.69;;;11.64;65.95
20009;BME280;10165;42.662;23.260;2023-03-11T03:47:48;92266.19;;;11.65;65.78
20009;BME280;10165;42.662;23.260;2023-03-11T03:50:15;92258.03;;;11.86;66.04
20009;BME280;10165;42.662;23.260;2023-03-11T03:52:42;92268.84;;;12.47;63.83
20009;BME280;10165;42.662;23.260;2023-03-11T03:55:08;92263.38;;;12.58;63.43
20009;BME280;10165;42.662;23.260;2023-03-11T03:57:35;92267.69;;;12.48;64.61
20009;BME280;10165;42.662;23.260;2023-03-11T04:00:05;92259.06;;;12.33;64.41
20009;BME280;10165;42.662;23.260;2023-03-11T04:02:34;92264.19;;;12.21;64.63
20009;BME280;10165;42.662;23.260;2023-03-11T04:05:01;92263.69;;;11.95;65.60
20009;BME280;10165;42.662;23.260;2023-03-11T04:07:28;92259.66;;;12.48;64.08
20009;BME280;10165;42.662;23.260;2023-03-11T04:09:55;92260.34;;;12.22;63.98
20009;BME280;10165;42.662;23.260;2023-03-11T04:12:21;92260.56;;;12.34;64.21
20009;BME280;10165;42.662;23.260;2023-03-11T04:14:48;92257.81;;;12.08;64.34
20009;BME280;10165;42.662;23.260;2023-03-11T04:17:15;92247.88;;;12.08;65.07
20009;BME280;10165;42.662;23.260;2023-03-11T04:19:43;92251.94;;;12.20;63.39
20009;BME280;10165;42.662;23.260;2023-03-11T04:22:10;92252.81;;;11.65;65.22
20009;BME280;10165;42.662;23.260;2023-03-11T04:24:36;92254.75;;;12.43;62.42
20009;BME280;10165;42.662;23.260;2023-03-11T04:27:06;92256.34;;;12.37;61.34
20009;BME280;10165;42.662;23.260;2023-03-11T04:29:32;92253.78;;;12.30;62.19
20009;BME280;10165;42.662;23.260;2023-03-11T04:31:59;92253.16;;;12.49;60.76
20009;BME280;10165;42.662;23.260;2023-03-11T04:34:26;92262.38;;;12.44;60.38
20009;BME280;10165;42.662;23.260;2023-03-11T04:36:53;92260.84;;;12.10;62.21
20009;BME280;10165;42.662;23.260;2023-03-11T04:39:20;92252.75;;;12.17;62.26
20009;BME280;10165;42.662;23.260;2023-03-11T04:41:47;92257.56;;;12.32;61.12
20009;BME280;10165;42.662;23.260;2023-03-11T04:44:14;92262.22;;;11.87;62.04
20009;BME280;10165;42.662;23.260;2023-03-11T04:46:41;92263.00;;;11.84;62.86
20009;BME280;10165;42.662;23.260;2023-03-11T04:49:08;92263.47;;;12.17;61.05
20009;BME280;10165;42.662;23.260;2023-03-11T04:51:35;92268.72;;;11.86;61.51
20009;BME280;10165;42.662;23.260;2023-03-11T04:54:02;92262.16;;;11.94;61.28
20009;BME280;10165;42.662;23.260;2023-03-11T04:56:29;92269.50;;;11.87;62.49
20009;BME280;10165;42.662;23.260;2023-03-11T04:58:55;92269.28;;;12.08;60.98
20009;BME280;10165;42.662;23.260;2023-03-11T05:01:22;92281.72;;;12.25;60.71
20009;BME280;10165;42.662;23.260;2023-03-11T05:03:49;92289.16;;;12.78;59.69
20009;BME280;10165;42.662;23.260;2023-03-11T05:06:17;92284.25;;;12.70;59.26
20009;BME280;10165;42.662;23.260;2023-03-11T05:08:44;92295.06;;;12.29;60.08
20009;BME280;10165;42.662;23.260;2023-03-11T05:11:13;92293.84;;;12.00;61.37
20009;BME280;10165;42.662;23.260;2023-03-11T05:13:40;92302.59;;;12.41;59.26
20009;BME280;10165;42.662;23.260;2023-03-11T05:16:06;92308.28;;;11.61;61.62
20009;BME280;10165;42.662;23.260;2023-03-11T05:18:33;92305.69;;;11.98;60.95
20009;BME280;10165;42.662;23.260;2023-03-11T05:21:00;92312.94;;;12.39;59.94
20009;BME280;10165;42.662;23.260;2023-03-11T05:23:27;92305.41;;;12.27;59.73
20009;BME280;10165;42.662;23.260;2023-03-11T05:25:54;92321.63;;;12.09;61.21
20009;BME280;10165;42.662;23.260;2023-03-11T05:28:20;92333.19;;;12.03;61.94
20009;BME280;10165;42.662;23.260;2023-03-11T05:30:47;92323.16;;;12.10;60.89
20009;BME280;10165;42.662;23.260;2023-03-11T05:33:14;92324.84;;;12.31;60.79
20009;BME280;10165;42.662;23.260;2023-03-11T05:35:40;92328.09;;;12.12;61.45
20009;BME280;10165;42.662;23.260;2023-03-11T05:38:08;92337.13;;;11.87;61.51
20009;BME280;10165;42.662;23.260;2023-03-11T05:40:35;92344.34;;;11.90;62.76
20009;BME280;10165;42.662;23.260;2023-03-11T05:43:02;92337.63;;;12.16;61.58
20009;BME280;10165;42.662;23.260;2023-03-11T05:45:28;92342.88;;;11.86;62.55
20009;BME280;10165;42.662;23.260;2023-03-11T05:47:55;92341.59;;;12.01;62.76
20009;BME280;10165;42.662;23.260;2023-03-11T05:50:22;92347.38;;;12.37;62.32
20009;BME280;10165;42.662;23.260;2023-03-11T05:52:48;92343.91;;;12.40;62.62
20009;BME280;10165;42.662;23.260;2023-03-11T05:55:15;92351.84;;;12.10;63.52
20009;BME280;10165;42.662;23.260;2023-03-11T05:57:41;92356.66;;;12.25;63.68
20009;BME280;10165;42.662;23.260;2023-03-11T06:00:09;92364.34;;;12.20;64.73
20009;BME280;10165;42.662;23.260;2023-03-11T06:02:39;92367.97;;;12.03;65.74
20009;BME280;10165;42.662;23.260;2023-03-11T06:05:06;92365.72;;;11.94;66.20
20009;BME280;10165;42.662;23.260;2023-03-11T06:07:34;92370.91;;;12.12;67.40
20009;BME280;10165;42.662;23.260;2023-03-11T06:10:02;92369.00;;;12.12;67.32
20009;BME280;10165;42.662;23.260;2023-03-11T06:12:33;92371.38;;;12.07;67.05
20009;BME280;10165;42.662;23.260;2023-03-11T06:14:59;92377.72;;;11.75;68.41
20009;BME280;10165;42.662;23.260;2023-03-11T06:17:27;92366.81;;;12.00;68.21
20009;BME280;10165;42.662;23.260;2023-03-11T06:19:55;92365.38;;;11.88;68.95
20009;BME280;10165;42.662;23.260;2023-03-11T06:22:22;92374.81;;;12.04;68.67
20009;BME280;10165;42.662;23.260;2023-03-11T06:24:49;92375.09;;;11.65;67.46
20009;BME280;10165;42.662;23.260;2023-03-11T06:27:16;92357.09;;;11.76;68.75
20009;BME280;10165;42.662;23.260;2023-03-11T06:29:42;92364.44;;;12.09;66.83
20009;BME280;10165;42.662;23.260;2023-03-11T06:32:09;92358.97;;;12.23;64.82
20009;BME280;10165;42.662;23.260;2023-03-11T06:34:36;92364.38;;;12.16;63.66
20009;BME280;10165;42.662;23.260;2023-03-11T06:37:03;92366.78;;;11.48;65.46
20009;BME280;10165;42.662;23.260;2023-03-11T06:39:29;92377.84;;;11.50;67.00
20009;BME280;10165;42.662;23.260;2023-03-11T06:41:56;92380.06;;;11.63;66.95
20009;BME280;10165;42.662;23.260;2023-03-11T06:44:23;92372.59;;;11.95;65.06
20009;BME280;10165;42.662;23.260;2023-03-11T06:46:49;92387.47;;;11.96;65.80
20009;BME280;10165;42.662;23.260;2023-03-11T06:49:16;92390.03;;;11.55;65.86
20009;BME280;10165;42.662;23.260;2023-03-11T06:51:42;92380.91;;;11.52;67.40
20009;BME280;10165;42.662;23.260;2023-03-11T06:54:22;92392.00;;;11.47;67.33
20009;BME280;10165;42.662;23.260;2023-03-11T06:56:48;92395.72;;;11.64;67.20
20009;BME280;10165;42.662;23.260;2023-03-11T06:59:15;92385.22;;;11.94;66.93
20009;BME280;10165;42.662;23.260;2023-03-11T07:01:42;92393.59;;;11.96;66.81
20009;BME280;10165;42.662;23.260;2023-03-11T07:04:09;92395.50;;;12.00;67.62
20009;BME280;10165;42.662;23.260;2023-03-11T07:06:36;92388.78;;;11.77;67.30
20009;BME280;10165;42.662;23.260;2023-03-11T07:09:02;92394.19;;;12.22;66.74
20009;BME280;10165;42.662;23.260;2023-03-11T07:11:29;92379.34;;;12.51;64.56
20009;BME280;10165;42.662;23.260;2023-03-11T07:13:56;92374.94;;;12.30;65.93
20009;BME280;10165;42.662;23.260;2023-03-11T07:16:27;92369.84;;;12.84;64.64
20009;BME280;10165;42.662;23.260;2023-03-11T07:18:56;92365.72;;;13.10;64.07
20009;BME280;10165;42.662;23.260;2023-03-11T07:21:24;92371.38;;;12.48;63.97
20009;BME280;10165;42.662;23.260;2023-03-11T07:23:53;92368.44;;;12.69;63.89
20009;BME280;10165;42.662;23.260;2023-03-11T07:26:20;92372.19;;;12.41;63.48
20009;BME280;10165;42.662;23.260;2023-03-11T07:28:47;92365.94;;;12.14;63.34
20009;BME280;10165;42.662;23.260;2023-03-11T07:31:21;92362.09;;;12.18;61.96
20009;BME280;10165;42.662;23.260;2023-03-11T07:33:49;92373.84;;;12.28;61.52
20009;BME280;10165;42.662;23.260;2023-03-11T07:36:18;92353.47;;;11.96;61.44
20009;BME280;10165;42.662;23.260;2023-03-11T07:38:46;92348.88;;;12.41;61.03
20009;BME280;10165;42.662;23.260;2023-03-11T07:41:14;92345.50;;;12.30;59.68
20009;BME280;10165;42.662;23.260;2023-03-11T07:43:42;92336.94;;;12.46;59.95
20009;BME280;10165;42.662;23.260;2023-03-11T07:46:13;92341.03;;;12.58;60.10
20009;BME280;10165;42.662;23.260;2023-03-11T07:48:49;92337.50;;;12.68;59.60
20009;BME280;10165;42.662;23.260;2023-03-11T07:51:21;92330.91;;;12.38;60.12
20009;BME280;10165;42.662;23.260;2023-03-11T07:53:50;92326.41;;;12.66;59.09
20009;BME280;10165;42.662;23.260;2023-03-11T07:56:18;92324.31;;;12.46;60.87
20009;BME280;10165;42.662;23.260;2023-03-11T07:58:45;92319.03;;;13.37;58.01
20009;BME280;10165;42.662;23.260;2023-03-11T08:01:17;92319.41;;;13.36;57.67
20009;BME280;10165;42.662;23.260;2023-03-11T08:03:47;92319.09;;;13.00;58.05
20009;BME280;10165;42.662;23.260;2023-03-11T08:06:20;92304.78;;;13.14;56.57
20009;BME280;10165;42.662;23.260;2023-03-11T08:08:54;92304.78;;;12.83;55.56
20009;BME280;10165;42.662;23.260;2023-03-11T08:11:23;92299.84;;;12.78;57.30
20009;BME280;10165;42.662;23.260;2023-03-11T08:13:51;92294.69;;;12.94;57.38
20009;BME280;10165;42.662;23.260;2023-03-11T08:16:20;92278.41;;;13.09;56.92
20009;BME280;10165;42.662;23.260;2023-03-11T08:18:49;92281.13;;;13.35;56.40
20009;BME280;10165;42.662;23.260;2023-03-11T08:21:19;92263.53;;;14.04;54.93
20009;BME280;10165;42.662;23.260;2023-03-11T08:23:48;92275.78;;;13.05;55.75
20009;BME280;10165;42.662;23.260;2023-03-11T08:26:19;92270.28;;;12.85;57.27
20009;BME280;10165;42.662;23.260;2023-03-11T08:28:48;92273.88;;;13.06;56.43
20009;BME280;10165;42.662;23.260;2023-03-11T08:31:20;92266.19;;;12.77;58.03
20009;BME280;10165;42.662;23.260;2023-03-11T08:33:49;92262.72;;;13.37;57.47
20009;BME280;10165;42.662;23.260;2023-03-11T08:36:17;92253.53;;;13.35;55.49
20009;BME280;10165;42.662;23.260;2023-03-11T08:38:44;92260.78;;;13.84;55.21
20009;BME280;10165;42.662;23.260;2023-03-11T08:41:11;92256.00;;;13.26;55.69
20009;BME280;10165;42.662;23.260;2023-03-11T08:43:38;92249.03;;;13.02;56.09
20009;BME280;10165;42.662;23.260;2023-03-11T08:46:05;92247.97;;;13.22;56.04
20009;BME280;10165;42.662;23.260;2023-03-11T08:48:33;92244.41;;;13.56;54.93
20009;BME280;10165;42.662;23.260;2023-03-11T08:51:00;92239.22;;;13.45;54.94
20009;BME280;10165;42.662;23.260;2023-03-11T08:53:28;92246.69;;;13.57;54.69
20009;BME280;10165;42.662;23.260;2023-03-11T08:55:55;92246.03;;;13.73;53.50
20009;BME280;10165;42.662;23.260;2023-03-11T08:58:21;92238.28;;;14.02;54.10
20009;BME280;10165;42.662;23.260;2023-03-11T09:00:48;92230.81;;;13.66;53.29
20009;BME280;10165;42.662;23.260;2023-03-11T09:03:15;92229.53;;;13.51;54.37
20009;BME280;10165;42.662;23.260;2023-03-11T09:05:41;92245.34;;;13.69;54.82
20009;BME280;10165;42.662;23.260;2023-03-11T09:08:08;92243.69;;;13.28;54.80
20009;BME280;10165;42.662;23.260;2023-03-11T09:10:35;92256.84;;;13.69;53.81
20009;BME280;10165;42.662;23.260;2023-03-11T09:13:01;92255.50;;;13.58;54.43
20009;BME280;10165;42.662;23.260;2023-03-11T09:15:28;92244.63;;;13.65;54.18
20009;BME280;10165;42.662;23.260;2023-03-11T09:17:55;92254.97;;;13.66;56.08
20009;BME280;10165;42.662;23.260;2023-03-11T09:20:22;92247.50;;;13.54;55.50
20009;BME280;10165;42.662;23.260;2023-03-11T09:22:49;92234.38;;;13.36;56.00
20009;BME280;10165;42.662;23.260;2023-03-11T09:25:15;92226.75;;;13.81;55.98
20009;BME280;10165;42.662;23.260;2023-03-11T09:27:42;92229.81;;;14.23;55.19
20009;BME280;10165;42.662;23.260;2023-03-11T09:30:10;92224.97;;;13.95;55.80
20009;BME280;10165;42.662;23.260;2023-03-11T09:32:37;92225.41;;;13.70;56.13
20009;BME280;10165;42.662;23.260;2023-03-11T09:35:03;92218.13;;;13.70;55.25
20009;BME280;10165;42.662;23.260;2023-03-11T09:37:30;92206.53;;;13.97;54.93
20009;BME280;10165;42.662;23.260;2023-03-11T09:39:57;92197.44;;;13.91;54.45
20009;BME280;10165;42.662;23.260;2023-03-11T09:45:28;92201.41;;;14.25;52.20
20009;BME280;10165;42.662;23.260;2023-03-11T09:50:37;92210.19;;;14.26;53.15
20009;BME280;10165;42.662;23.260;2023-03-11T09:53:18;92218.22;;;14.29;53.59
20009;BME280;10165;42.662;23.260;2023-03-11T09:55:53;92213.59;;;14.50;52.03
20009;BME280;10165;42.662;23.260;2023-03-11T10:00:50;92216.16;;;14.37;51.91
20009;BME280;10165;42.662;23.260;2023-03-11T10:06:00;92210.66;;;14.80;50.78
20009;BME280;10165;42.662;23.260;2023-03-11T10:08:39;92224.56;;;14.59;50.35
20009;BME280;10165;42.662;23.260;2023-03-11T10:16:49;92230.00;;;14.55;48.42
20009;BME280;10165;42.662;23.260;2023-03-11T10:19:33;92235.88;;;14.27;48.87
20009;BME280;10165;42.662;23.260;2023-03-11T10:22:38;92230.78;;;14.13;49.71
20009;BME280;10165;42.662;23.260;2023-03-11T10:25:13;92226.16;;;14.92;48.53
20009;BME280;10165;42.662;23.260;2023-03-11T10:30:25;92231.53;;;14.92;47.50
20009;BME280;10165;42.662;23.260;2023-03-11T10:33:12;92225.66;;;15.49;45.83
20009;BME280;10165;42.662;23.260;2023-03-11T10:35:47;92228.72;;;15.15;46.13
20009;BME280;10165;42.662;23.260;2023-03-11T10:38:20;92227.13;;;15.18;46.72
20009;BME280;10165;42.662;23.260;2023-03-11T10:41:02;92227.09;;;14.66;46.67
20009;BME280;10165;42.662;23.260;2023-03-11T10:43:53;92225.69;;;14.77;47.48
20009;BME280;10165;42.662;23.260;2023-03-11T10:46:24;92226.75;;;15.00;46.92
20009;BME280;10165;42.662;23.260;2023-03-11T10:48:52;92242.34;;;14.89;47.43
20009;BME280;10165;42.662;23.260;2023-03-11T10:51:30;92251.19;;;14.50;52.45
20009;BME280;10165;42.662;23.260;2023-03-11T10:54:00;92261.09;;;13.44;57.54
20009;BME280;10165;42.662;23.260;2023-03-11T10:56:31;92258.09;;;13.61;58.66
20009;BME280;10165;42.662;23.260;2023-03-11T10:59:01;92246.47;;;13.48;59.03
20009;BME280;10165;42.662;23.260;2023-03-11T11:01:31;92237.22;;;13.96;58.96
20009;BME280;10165;42.662;23.260;2023-03-11T11:04:00;92235.31;;;14.16;57.42
20009;BME280;10165;42.662;23.260;2023-03-11T11:06:33;92232.75;;;13.66;58.22
20009;BME280;10165;42.662;23.260;2023-03-11T11:09:19;92241.91;;;14.11;56.45
20009;BME280;10165;42.662;23.260;2023-03-11T11:14:46;92234.09;;;13.77;54.17
20009;BME280;10165;42.662;23.260;2023-03-11T11:17:28;92215.31;;;14.20;53.84
20009;BME280;10165;42.662;23.260;2023-03-11T11:19:57;92227.47;;;14.48;52.68
20009;BME280;10165;42.662;23.260;2023-03-11T11:22:25;92229.59;;;14.37;53.84
20009;BME280;10165;42.662;23.260;2023-03-11T11:24:53;92231.97;;;14.31;54.58
20009;BME280;10165;42.662;23.260;2023-03-11T11:27:25;92220.22;;;13.82;56.25
20009;BME280;10165;42.662;23.260;2023-03-11T11:30:13;92217.50;;;14.06;57.16
20009;BME280;10165;42.662;23.260;2023-03-11T11:32:40;92201.38;;;14.65;55.92
20009;BME280;10165;42.662;23.260;2023-03-11T11:35:16;92196.44;;;14.24;56.07
20009;BME280;10165;42.662;23.260;2023-03-11T11:40:26;92171.19;;;14.41;54.22
20009;BME280;10165;42.662;23.260;2023-03-11T11:43:40;92167.22;;;14.65;50.82
20009;BME280;10165;42.662;23.260;2023-03-11T11:46:20;92162.69;;;14.62;50.26
20009;BME280;10165;42.662;23.260;2023-03-11T11:49:10;92158.03;;;14.82;48.32
20009;BME280;10165;42.662;23.260;2023-03-11T11:51:57;92152.34;;;15.61;49.26
20009;BME280;10165;42.662;23.260;2023-03-11T11:54:41;92156.44;;;15.33;45.42
20009;BME280;10165;42.662;23.260;2023-03-11T11:57:15;92150.16;;;15.08;46.96
20009;BME280;10165;42.662;23.260;2023-03-11T11:59:42;92155.34;;;15.47;47.25
20009;BME280;10165;42.662;23.260;2023-03-11T12:04:53;92153.16;;;14.94;45.90
20009;BME280;10165;42.662;23.260;2023-03-11T12:11:03;92160.19;;;14.88;46.70
20009;BME280;10165;42.662;23.260;2023-03-11T12:18:40;92149.47;;;15.04;46.26
20009;BME280;10165;42.662;23.260;2023-03-11T12:21:49;92145.59;;;14.89;47.06
20009;BME280;10165;42.662;23.260;2023-03-11T12:24:47;92159.97;;;15.30;46.61
20009;BME280;10165;42.662;23.260;2023-03-11T12:29:45;92159.00;;;15.24;47.93
20009;BME280;10165;42.662;23.260;2023-03-11T12:32:36;92166.22;;;14.59;48.46
20009;BME280;10165;42.662;23.260;2023-03-11T12:35:20;92162.69;;;14.98;49.41
20009;BME280;10165;42.662;23.260;2023-03-11T12:40:57;92155.84;;;15.74;48.14
20009;BME280;10165;42.662;23.260;2023-03-11T12:46:03;92157.72;;;15.13;50.10
20009;BME280;10165;42.662;23.260;2023-03-11T12:53:57;92150.75;;;15.15;48.71
20009;BME280;10165;42.662;23.260;2023-03-11T13:04:39;92187.53;;;15.02;49.65
20009;BME280;10165;42.662;23.260;2023-03-11T13:12:39;92205.31;;;14.21;53.58
20009;BME280;10165;42.662;23.260;2023-03-11T13:18:14;92220.88;;;14.10;53.97
20009;BME280;10165;42.662;23.260;2023-03-11T13:20:52;92223.19;;;14.08;54.19
20009;BME280;10165;42.662;23.260;2023-03-11T13:26:37;92244.81;;;14.01;53.59
20009;BME280;10165;42.662;23.260;2023-03-11T13:30:02;92260.56;;;13.99;53.71
20009;BME280;10165;42.662;23.260;2023-03-11T13:38:33;92292.22;;;11.61;72.18
20009;BME280;10165;42.662;23.260;2023-03-11T13:41:12;92305.66;;;10.95;73.14
20009;BME280;10165;42.662;23.260;2023-03-11T13:43:45;92307.03;;;11.18;73.46
20009;BME280;10165;42.662;23.260;2023-03-11T13:46:31;92308.53;;;11.26;73.93
20009;BME280;10165;42.662;23.260;2023-03-11T13:49:08;92316.44;;;11.40;73.90
20009;BME280;10165;42.662;23.260;2023-03-11T13:51:41;92315.34;;;11.34;73.89
20009;BME280;10165;42.662;23.260;2023-03-11T13:54:34;92313.31;;;10.86;76.45
20009;BME280;10165;42.662;23.260;2023-03-11T13:57:03;92297.78;;;11.84;74.27
20009;BME280;10165;42.662;23.260;2023-03-11T13:59:32;92295.41;;;11.93;71.85
20009;BME280;10165;42.662;23.260;2023-03-11T14:04:29;92293.88;;;12.33;72.84
20009;BME280;10165;42.662;23.260;2023-03-11T14:06:57;92301.00;;;13.38;69.55
20009;BME280;10165;42.662;23.260;2023-03-11T14:09:25;92303.63;;;13.41;68.17
20009;BME280;10165;42.662;23.260;2023-03-11T14:12:03;92297.41;;;13.48;67.73
20009;BME280;10165;42.662;23.260;2023-03-11T14:14:35;92300.38;;;13.27;69.65
20009;BME280;10165;42.662;23.260;2023-03-11T14:17:13;92298.66;;;13.90;65.56
20009;BME280;10165;42.662;23.260;2023-03-11T14:19:41;92302.09;;;13.67;64.07
20009;BME280;10165;42.662;23.260;2023-03-11T14:22:09;92298.25;;;13.41;65.01
20009;BME280;10165;42.662;23.260;2023-03-11T14:24:36;92289.13;;;13.09;66.41